sensor_id;sensor_type;location;lat;lon;timestamp;pressure;altitude;pressure_sealevel;temperature;humidity
36304;BME280;22335;49.800;8.596;2022-11-21T00:04:48;99529.34;;;10.63;64.35
36304;BME280;22335;49.800;8.596;2022-11-21T00:11:33;99525.19;;;10.66;64.35
36304;BME280;22335;49.800;8.596;2022-11-21T00:18:22;99511.56;;;10.74;64.47
36304;BME280;22335;49.800;8.596;2022-11-21T00:25:08;99506.50;;;11.04;64.21
36304;BME280;22335;49.800;8.596;2022-11-21T00:31:54;99505.63;;;11.17;63.91
36304;BME280;22335;49.800;8.596;2022-11-21T00:38:42;99501.22;;;11.07;63.99
36304;BME280;22335;49.800;8.596;2022-11-21T00:45:27;99505.44;;;11.14;63.74
36304;BME280;22335;49.800;8.596;2022-11-21T00:52:13;99500.41;;;11.07;63.86
36304;BME280;22335;49.800;8.596;2022-11-21T00:59:03;99492.13;;;10.98;63.90
36304;BME280;22335;49.800;8.596;2022-11-21T01:05:48;99498.53;;;10.94;63.99
36304;BME280;22335;49.800;8.596;2022-11-21T01:12:33;99476.47;;;10.90;64.17
36304;BME280;22335;49.800;8.596;2022-11-21T01:19:21;99483.75;;;10.95;64.13
36304;BME280;22335;49.800;8.596;2022-11-21T01:26:10;99459.84;;;10.87;64.11
36304;BME280;22335;49.800;8.596;2022-11-21T01:32:56;99451.84;;;10.90;63.71
36304;BME280;22335;49.800;8.596;2022-11-21T01:39:45;99464.78;;;10.98;63.59
36304;BME280;22335;49.800;8.596;2022-11-21T01:46:30;99472.53;;;11.05;63.39
36304;BME280;22335;49.800;8.596;2022-11-21T01:53:16;99451.59;;;11.00;63.27
36304;BME280;22335;49.800;8.596;2022-11-21T02:00:07;99440.91;;;10.90;63.30
36304;BME280;22335;49.800;8.596;2022-11-21T02:06:56;99454.88;;;10.89;63.36
36304;BME280;22335;49.800;8.596;2022-11-21T02:13:43;99459.84;;;10.87;63.22
36304;BME280;22335;49.800;8.596;2022-11-21T02:20:31;99450.41;;;10.93;63.20
36304;BME280;22335;49.800;8.596;2022-11-21T02:27:19;99451.34;;;10.88;63.00
36304;BME280;22335;49.800;8.596;2022-11-21T02:34:05;99463.81;;;10.80;63.14
36304;BME280;22335;49.800;8.596;2022-11-21T02:40:54;99450.91;;;10.72;63.09
36304;BME280;22335;49.800;8.596;2022-11-21T02:47:48;99382.13;;;10.20;63.09
36304;BME280;22335;49.800;8.596;2022-11-21T02:54:44;99458.97;;;10.55;63.26
36304;BME280;22335;49.800;8.596;2022-11-21T03:01:30;99468.31;;;10.40;63.41
36304;BME280;22335;49.800;8.596;2022-11-21T03:08:17;99450.94;;;10.22;63.69
36304;BME280;22335;49.800;8.596;2022-11-21T03:15:04;99452.47;;;10.14;63.67
36304;BME280;22335;49.800;8.596;2022-11-21T03:21:51;99455.38;;;10.18;63.68
36304;BME280;22335;49.800;8.596;2022-11-21T03:28:40;99450.44;;;10.20;63.67
36304;BME280;22335;49.800;8.596;2022-11-21T03:35:26;99460.25;;;10.21;63.82
36304;BME280;22335;49.800;8.596;2022-11-21T03:42:11;99462.97;;;10.21;63.60
36304;BME280;22335;49.800;8.596;2022-11-21T04:02:48;99464.75;;;10.53;63.30
36304;BME280;22335;49.800;8.596;2022-11-21T04:09:33;99490.69;;;10.78;62.91
36304;BME280;22335;49.800;8.596;2022-11-21T04:16:19;99481.19;;;10.76;62.86
36304;BME280;22335;49.800;8.596;2022-11-21T04:23:07;99475.53;;;10.72;62.79
36304;BME280;22335;49.800;8.596;2022-11-21T04:29:53;99495.38;;;10.78;62.88
36304;BME280;22335;49.800;8.596;2022-11-21T04:36:38;99479.97;;;10.68;62.76
36304;BME280;22335;49.800;8.596;2022-11-21T04:43:26;99468.41;;;10.71;62.78
36304;BME280;22335;49.800;8.596;2022-11-21T04:50:14;99384.03;;;10.20;62.60
36304;BME280;22335;49.800;8.596;2022-11-21T04:57:00;99428.63;;;10.43;62.71
36304;BME280;22335;49.800;8.596;2022-11-21T05:03:51;99488.06;;;10.73;63.23
36304;BME280;22335;49.800;8.596;2022-11-21T05:10:36;99477.25;;;10.68;63.22
36304;BME280;22335;49.800;8.596;2022-11-21T05:17:34;99494.84;;;10.76;63.18
36304;BME280;22335;49.800;8.596;2022-11-21T05:24:22;99477.94;;;10.74;63.38
36304;BME280;22335;49.800;8.596;2022-11-21T05:31:08;99476.25;;;10.87;63.07
36304;BME280;22335;49.800;8.596;2022-11-21T05:37:57;99479.69;;;10.92;63.23
36304;BME280;22335;49.800;8.596;2022-11-21T05:44:45;99472.50;;;10.96;63.23
36304;BME280;22335;49.800;8.596;2022-11-21T05:51:30;99484.53;;;10.95;63.18
36304;BME280;22335;49.800;8.596;2022-11-21T05:58:16;99451.91;;;10.76;63.11
36304;BME280;22335;49.800;8.596;2022-11-21T06:05:05;99465.94;;;10.83;63.16
36304;BME280;22335;49.800;8.596;2022-11-21T06:11:51;99470.69;;;10.92;62.71
36304;BME280;22335;49.800;8.596;2022-11-21T06:18:38;99426.41;;;10.45;62.85
36304;BME280;22335;49.800;8.596;2022-11-21T06:25:27;99492.69;;;10.87;62.91
36304;BME280;22335;49.800;8.596;2022-11-21T06:32:13;99478.09;;;10.91;62.57
36304;BME280;22335;49.800;8.596;2022-11-21T06:38:58;99473.53;;;10.87;62.61
36304;BME280;22335;49.800;8.596;2022-11-21T06:45:46;99482.44;;;10.92;62.80
36304;BME280;22335;49.800;8.596;2022-11-21T06:52:32;99485.75;;;11.03;62.52
36304;BME280;22335;49.800;8.596;2022-11-21T06:59:18;99501.50;;;11.28;62.45
36304;BME280;22335;49.800;8.596;2022-11-21T07:06:06;99495.28;;;11.37;62.18
36304;BME280;22335;49.800;8.596;2022-11-21T07:12:55;99493.03;;;11.39;62.15
36304;BME280;22335;49.800;8.596;2022-11-21T07:19:53;99500.00;;;11.45;61.96
36304;BME280;22335;49.800;8.596;2022-11-21T07:26:41;99485.81;;;11.43;61.85
36304;BME280;22335;49.800;8.596;2022-11-21T07:33:27;99501.47;;;11.51;61.84
36304;BME280;22335;49.800;8.596;2022-11-21T07:40:12;99498.44;;;11.52;61.93
36304;BME280;22335;49.800;8.596;2022-11-21T07:47:01;99494.22;;;11.46;61.99
36304;BME280;22335;49.800;8.596;2022-11-21T07:53:46;99522.75;;;11.54;62.03
36304;BME280;22335;49.800;8.596;2022-11-21T08:00:33;99494.69;;;11.48;62.02
36304;BME280;22335;49.800;8.596;2022-11-21T08:07:23;99502.91;;;11.48;62.20
36304;BME280;22335;49.800;8.596;2022-11-21T08:14:09;99507.09;;;11.46;62.26
36304;BME280;22335;49.800;8.596;2022-11-21T08:20:54;99506.91;;;11.42;62.36
36304;BME280;22335;49.800;8.596;2022-11-21T08:27:43;99517.44;;;11.49;62.37
36304;BME280;22335;49.800;8.596;2022-11-21T08:34:29;99501.06;;;11.35;62.47
36304;BME280;22335;49.800;8.596;2022-11-21T08:41:15;99504.09;;;11.56;61.98
36304;BME280;22335;49.800;8.596;2022-11-21T08:48:15;99492.06;;;11.35;62.71
36304;BME280;22335;49.800;8.596;2022-11-21T08:55:01;99494.84;;;11.43;63.09
36304;BME280;22335;49.800;8.596;2022-11-21T09:01:47;99492.84;;;11.35;62.75
36304;BME280;22335;49.800;8.596;2022-11-21T09:08:36;99480.75;;;11.27;62.75
36304;BME280;22335;49.800;8.596;2022-11-21T09:15:21;99491.25;;;11.34;62.73
36304;BME280;22335;49.800;8.596;2022-11-21T09:22:19;99475.63;;;11.35;62.86
36304;BME280;22335;49.800;8.596;2022-11-21T09:29:08;99484.06;;;11.47;62.95
36304;BME280;22335;49.800;8.596;2022-11-21T09:35:57;99388.50;;;11.05;62.52
36304;BME280;22335;49.800;8.596;2022-11-21T09:42:57;99490.91;;;11.98;62.46
36304;BME280;22335;49.800;8.596;2022-11-21T09:50:01;99476.28;;;12.11;61.93
36304;BME280;22335;49.800;8.596;2022-11-21T09:56:47;99464.69;;;12.23;61.91
36304;BME280;22335;49.800;8.596;2022-11-21T10:03:38;99468.09;;;12.63;61.34
36304;BME280;22335;49.800;8.596;2022-11-21T10:10:42;99462.13;;;12.79;60.73
36304;BME280;22335;49.800;8.596;2022-11-21T10:17:45;99441.16;;;12.91;60.65
36304;BME280;22335;49.800;8.596;2022-11-21T10:24:43;99433.22;;;13.07;60.22
36304;BME280;22335;49.800;8.596;2022-11-21T10:31:37;99433.13;;;13.42;60.03
36304;BME280;22335;49.800;8.596;2022-11-21T10:38:25;99418.78;;;13.19;60.04
36304;BME280;22335;49.800;8.596;2022-11-21T10:45:13;99419.91;;;13.35;59.76
36304;BME280;22335;49.800;8.596;2022-11-21T10:52:10;99390.38;;;13.32;59.56
36304;BME280;22335;49.800;8.596;2022-11-21T10:58:57;99380.13;;;13.50;59.42
36304;BME280;22335;49.800;8.596;2022-11-21T11:05:53;99373.31;;;13.56;59.25
36304;BME280;22335;49.800;8.596;2022-11-21T11:12:47;99370.03;;;13.63;58.88
36304;BME280;22335;49.800;8.596;2022-11-21T11:20:30;99369.50;;;13.70;58.72
36304;BME280;22335;49.800;8.596;2022-11-21T11:27:26;99331.75;;;13.58;58.09
36304;BME280;22335;49.800;8.596;2022-11-21T11:34:15;99326.19;;;13.67;57.91
36304;BME280;22335;49.800;8.596;2022-11-21T11:41:09;99320.31;;;13.77;57.52
36304;BME280;22335;49.800;8.596;2022-11-21T11:48:06;99315.38;;;13.91;57.62
36304;BME280;22335;49.800;8.596;2022-11-21T11:54:59;99287.88;;;13.91;57.47
36304;BME280;22335;49.800;8.596;2022-11-21T12:01:51;99284.59;;;13.98;57.55
36304;BME280;22335;49.800;8.596;2022-11-21T12:08:46;99257.09;;;13.98;57.22
36304;BME280;22335;49.800;8.596;2022-11-21T12:15:40;99261.06;;;14.09;56.97
36304;BME280;22335;49.800;8.596;2022-11-21T12:22:33;99253.50;;;14.18;56.59
36304;BME280;22335;49.800;8.596;2022-11-21T12:29:38;99234.41;;;14.22;56.56
36304;BME280;22335;49.800;8.596;2022-11-21T12:36:39;99225.84;;;14.36;56.36
36304;BME280;22335;49.800;8.596;2022-11-21T12:43:36;99143.59;;;13.97;56.11
36304;BME280;22335;49.800;8.596;2022-11-21T12:50:33;99213.06;;;14.52;55.81
36304;BME280;22335;49.800;8.596;2022-11-21T12:57:47;99185.69;;;14.56;55.62
36304;BME280;22335;49.800;8.596;2022-11-21T13:04:46;99178.13;;;14.65;55.49
36304;BME280;22335;49.800;8.596;2022-11-21T13:11:40;99172.03;;;14.71;55.36
36304;BME280;22335;49.800;8.596;2022-11-21T13:18:47;99153.34;;;14.52;55.31
36304;BME280;22335;49.800;8.596;2022-11-21T13:25:41;99139.91;;;14.51;55.09
36304;BME280;22335;49.800;8.596;2022-11-21T13:32:36;99137.97;;;14.64;54.86
36304;BME280;22335;49.800;8.596;2022-11-21T13:39:30;99124.09;;;14.72;55.06
36304;BME280;22335;49.800;8.596;2022-11-21T13:54:06;99109.53;;;14.72;55.22
36304;BME280;22335;49.800;8.596;2022-11-21T14:01:18;99080.72;;;14.94;55.33
36304;BME280;22335;49.800;8.596;2022-11-21T14:08:18;99073.88;;;14.63;55.29
36304;BME280;22335;49.800;8.596;2022-11-21T14:15:18;99040.97;;;14.42;55.01
36304;BME280;22335;49.800;8.596;2022-11-21T14:22:16;99032.59;;;14.26;54.95
36304;BME280;22335;49.800;8.596;2022-11-21T14:29:16;99025.94;;;14.27;54.78
36304;BME280;22335;49.800;8.596;2022-11-21T14:36:05;98985.28;;;14.08;54.75
36304;BME280;22335;49.800;8.596;2022-11-21T14:42:55;98992.63;;;14.17;54.43
36304;BME280;22335;49.800;8.596;2022-11-21T14:49:49;99018.75;;;14.23;54.50
36304;BME280;22335;49.800;8.596;2022-11-21T14:56:36;99006.00;;;14.30;54.10
36304;BME280;22335;49.800;8.596;2022-11-21T15:03:24;98982.78;;;14.28;53.93
36304;BME280;22335;49.800;8.596;2022-11-21T15:10:11;98973.00;;;14.30;53.81
36304;BME280;22335;49.800;8.596;2022-11-21T15:17:16;98958.00;;;14.40;53.76
36304;BME280;22335;49.800;8.596;2022-11-21T15:24:18;98907.25;;;14.25;53.55
36304;BME280;22335;49.800;8.596;2022-11-21T15:31:19;98912.63;;;14.34;53.41
36304;BME280;22335;49.800;8.596;2022-11-21T15:38:14;98869.09;;;14.24;53.56
36304;BME280;22335;49.800;8.596;2022-11-21T15:45:24;98856.25;;;14.28;53.67
36304;BME280;22335;49.800;8.596;2022-11-21T15:52:11;98727.84;;;13.48;53.33
36304;BME280;22335;49.800;8.596;2022-11-21T15:58:56;98819.94;;;14.22;53.04
36304;BME280;22335;49.800;8.596;2022-11-21T16:05:45;98787.56;;;14.16;52.89
36304;BME280;22335;49.800;8.596;2022-11-21T16:12:30;98781.97;;;14.12;52.81
36304;BME280;22335;49.800;8.596;2022-11-21T16:19:16;98772.09;;;14.11;52.94
36304;BME280;22335;49.800;8.596;2022-11-21T16:26:04;98721.34;;;13.80;52.41
36304;BME280;22335;49.800;8.596;2022-11-21T16:32:49;98755.16;;;14.09;52.62
36304;BME280;22335;49.800;8.596;2022-11-21T16:39:36;98745.91;;;14.01;52.63
36304;BME280;22335;49.800;8.596;2022-11-21T16:46:24;98712.06;;;13.85;52.23
36304;BME280;22335;49.800;8.596;2022-11-21T16:53:09;98732.84;;;13.98;52.50
36304;BME280;22335;49.800;8.596;2022-11-21T16:59:55;98719.34;;;13.93;52.37
36304;BME280;22335;49.800;8.596;2022-11-21T17:06:46;98714.72;;;14.10;52.13
36304;BME280;22335;49.800;8.596;2022-11-21T17:13:32;98701.88;;;14.14;51.79
36304;BME280;22335;49.800;8.596;2022-11-21T17:20:17;98694.84;;;14.00;52.16
36304;BME280;22335;49.800;8.596;2022-11-21T17:27:05;98680.78;;;13.90;52.22
36304;BME280;22335;49.800;8.596;2022-11-21T17:33:51;98649.47;;;13.78;51.93
36304;BME280;22335;49.800;8.596;2022-11-21T17:40:38;98675.09;;;13.82;51.94
36304;BME280;22335;49.800;8.596;2022-11-21T17:47:27;98663.22;;;13.78;52.03
36304;BME280;22335;49.800;8.596;2022-11-21T17:54:12;98677.00;;;13.66;52.06
36304;BME280;22335;49.800;8.596;2022-11-21T18:01:00;98643.72;;;13.55;51.94
36304;BME280;22335;49.800;8.596;2022-11-21T18:07:49;98658.28;;;13.44;52.27
36304;BME280;22335;49.800;8.596;2022-11-21T18:14:34;98649.94;;;13.40;52.32
36304;BME280;22335;49.800;8.596;2022-11-21T18:21:22;98654.44;;;13.20;52.33
36304;BME280;22335;49.800;8.596;2022-11-21T18:28:11;98650.66;;;13.25;52.35
36304;BME280;22335;49.800;8.596;2022-11-21T18:34:57;98640.44;;;13.37;52.25
36304;BME280;22335;49.800;8.596;2022-11-21T18:41:51;98623.06;;;13.33;52.21
36304;BME280;22335;49.800;8.596;2022-11-21T18:48:37;98651.44;;;13.37;51.84
36304;BME280;22335;49.800;8.596;2022-11-21T18:55:43;98692.16;;;13.48;52.01
36304;BME280;22335;49.800;8.596;2022-11-21T19:02:31;98639.53;;;13.21;51.94
36304;BME280;22335;49.800;8.596;2022-11-21T19:09:17;98652.72;;;13.03;51.99
36304;BME280;22335;49.800;8.596;2022-11-21T19:16:03;98653.44;;;12.88;51.95
36304;BME280;22335;49.800;8.596;2022-11-21T19:22:52;98627.38;;;12.69;52.06
36304;BME280;22335;49.800;8.596;2022-11-21T19:29:38;98605.66;;;12.77;52.18
36304;BME280;22335;49.800;8.596;2022-11-21T19:36:23;98582.56;;;12.90;51.82
36304;BME280;22335;49.800;8.596;2022-11-21T19:43:11;98574.28;;;13.02;51.49
36304;BME280;22335;49.800;8.596;2022-11-21T19:49:57;98568.41;;;13.16;51.41
36304;BME280;22335;49.800;8.596;2022-11-21T19:56:42;98579.50;;;13.32;51.19
36304;BME280;22335;49.800;8.596;2022-11-21T20:03:30;98554.34;;;13.30;51.16
36304;BME280;22335;49.800;8.596;2022-11-21T20:10:16;98551.00;;;13.36;50.96
36304;BME280;22335;49.800;8.596;2022-11-21T20:17:02;98557.50;;;13.44;50.84
36304;BME280;22335;49.800;8.596;2022-11-21T20:23:50;98538.34;;;13.48;50.99
36304;BME280;22335;49.800;8.596;2022-11-21T20:30:36;98523.13;;;13.50;50.83
36304;BME280;22335;49.800;8.596;2022-11-21T20:37:22;98527.56;;;13.55;50.84
36304;BME280;22335;49.800;8.596;2022-11-21T20:44:12;98520.09;;;13.55;50.86
36304;BME280;22335;49.800;8.596;2022-11-21T20:51:19;98514.06;;;13.50;50.87
36304;BME280;22335;49.800;8.596;2022-11-21T20:58:27;98491.44;;;13.25;51.09
36304;BME280;22335;49.800;8.596;2022-11-21T21:05:16;98506.06;;;13.29;51.45
36304;BME280;22335;49.800;8.596;2022-11-21T21:12:01;98510.88;;;13.20;51.43
36304;BME280;22335;49.800;8.596;2022-11-21T21:18:47;98518.25;;;13.03;51.65
36304;BME280;22335;49.800;8.596;2022-11-21T21:25:37;98503.84;;;12.66;52.15
36304;BME280;22335;49.800;8.596;2022-11-21T21:32:23;98514.59;;;12.59;52.55
36304;BME280;22335;49.800;8.596;2022-11-21T21:39:08;98503.44;;;12.52;52.92
36304;BME280;22335;49.800;8.596;2022-11-21T21:46:01;98485.84;;;12.40;53.21
36304;BME280;22335;49.800;8.596;2022-11-21T21:52:47;98493.94;;;12.49;53.33
36304;BME280;22335;49.800;8.596;2022-11-21T21:59:32;98513.00;;;12.58;53.53
36304;BME280;22335;49.800;8.596;2022-11-21T22:06:20;98502.97;;;12.50;53.76
36304;BME280;22335;49.800;8.596;2022-11-21T22:13:06;98510.59;;;12.56;53.73
36304;BME280;22335;49.800;8.596;2022-11-21T22:19:52;98508.44;;;12.62;53.95
36304;BME280;22335;49.800;8.596;2022-11-21T22:26:40;98485.25;;;12.47;54.34
36304;BME280;22335;49.800;8.596;2022-11-21T22:33:26;98483.06;;;12.53;54.33
36304;BME280;22335;49.800;8.596;2022-11-21T22:40:11;98485.31;;;12.63;54.47
36304;BME280;22335;49.800;8.596;2022-11-21T22:47:00;98481.47;;;12.64;54.56
36304;BME280;22335;49.800;8.596;2022-11-21T22:53:46;98485.59;;;12.58;54.57
36304;BME280;22335;49.800;8.596;2022-11-21T23:00:32;98478.16;;;12.58;54.83
36304;BME280;22335;49.800;8.596;2022-11-21T23:07:20;98461.72;;;12.46;55.03
36304;BME280;22335;49.800;8.596;2022-11-21T23:14:05;98459.97;;;12.54;55.15
36304;BME280;22335;49.800;8.596;2022-11-21T23:20:51;98454.31;;;12.34;55.49
36304;BME280;22335;49.800;8.596;2022-11-21T23:27:39;98429.13;;;12.04;55.83
36304;BME280;22335;49.800;8.596;2022-11-21T23:34:25;98437.81;;;11.94;56.00
36304;BME280;22335;49.800;8.596;2022-11-21T23:41:10;98434.16;;;11.90;56.32
36304;BME280;22335;49.800;8.596;2022-11-21T23:47:58;98418.97;;;11.80;56.59
36304;BME280;22335;49.800;8.596;2022-11-21T23:54:44;98424.53;;;11.84;56.37
